sensor_id;sensor_type;location;lat;lon;timestamp;pressure;altitude;pressure_sealevel;temperature;humidity
42289;BME280;30230;47.520;19.016;2022-07-23T00:01:18;98978.13;;;26.09;42.34
42289;BME280;30230;47.520;19.016;2022-07-23T00:03:18;98981.69;;;26.09;42.61
42289;BME280;30230;47.520;19.016;2022-07-23T00:05:18;98973.03;;;26.02;42.47
42289;BME280;30230;47.520;19.016;2022-07-23T00:07:19;98981.81;;;26.04;42.21
42289;BME280;30230;47.520;19.016;2022-07-23T00:09:19;98963.19;;;25.96;42.27
42289;BME280;30230;47.520;19.016;2022-07-23T00:11:20;98971.38;;;26.01;41.43
42289;BME280;30230;47.520;19.016;2022-07-23T00:13:22;98965.78;;;25.92;42.09
42289;BME280;30230;47.520;19.016;2022-07-23T00:15:22;98972.13;;;25.93;42.45
42289;BME280;30230;47.520;19.016;2022-07-23T00:17:23;98977.97;;;25.91;42.13
42289;BME280;30230;47.520;19.016;2022-07-23T00:19:23;98961.28;;;25.83;41.97
42289;BME280;30230;47.520;19.016;2022-07-23T00:21:23;98981.66;;;25.87;42.19
42289;BME280;30230;47.520;19.016;2022-07-23T00:23:24;98977.06;;;25.82;42.60
42289;BME280;30230;47.520;19.016;2022-07-23T00:25:26;98970.84;;;25.77;42.56
42289;BME280;30230;47.520;19.016;2022-07-23T00:27:27;98968.47;;;25.70;42.28
42289;BME280;30230;47.520;19.016;2022-07-23T00:29:27;98978.00;;;25.78;41.55
42289;BME280;30230;47.520;19.016;2022-07-23T00:31:28;98969.59;;;25.69;42.15
42289;BME280;30230;47.520;19.016;2022-07-23T00:33:28;98975.94;;;25.69;41.95
42289;BME280;30230;47.520;19.016;2022-07-23T00:35:31;98979.22;;;25.71;42.65
42289;BME280;30230;47.520;19.016;2022-07-23T00:37:32;98980.47;;;25.65;42.13
42289;BME280;30230;47.520;19.016;2022-07-23T00:39:33;98974.94;;;25.65;41.99
42289;BME280;30230;47.520;19.016;2022-07-23T00:41:33;98982.41;;;25.65;42.37
42289;BME280;30230;47.520;19.016;2022-07-23T00:43:34;98984.66;;;25.63;41.25
42289;BME280;30230;47.520;19.016;2022-07-23T00:45:34;98989.25;;;25.67;41.28
42289;BME280;30230;47.520;19.016;2022-07-23T00:47:35;98987.63;;;25.66;41.48
42289;BME280;30230;47.520;19.016;2022-07-23T00:49:36;98981.19;;;25.57;41.21
42289;BME280;30230;47.520;19.016;2022-07-23T00:51:37;98987.72;;;25.61;41.25
42289;BME280;30230;47.520;19.016;2022-07-23T00:53:37;98981.72;;;25.59;42.52
42289;BME280;30230;47.520;19.016;2022-07-23T00:55:38;98982.00;;;25.58;41.72
42289;BME280;30230;47.520;19.016;2022-07-23T00:57:40;98991.84;;;25.64;42.32
42289;BME280;30230;47.520;19.016;2022-07-23T00:59:41;98984.16;;;25.61;43.10
42289;BME280;30230;47.520;19.016;2022-07-23T01:01:41;98981.00;;;25.54;43.01
42289;BME280;30230;47.520;19.016;2022-07-23T01:03:44;98988.34;;;25.58;42.83
42289;BME280;30230;47.520;19.016;2022-07-23T01:05:44;98988.06;;;25.60;42.81
42289;BME280;30230;47.520;19.016;2022-07-23T01:07:45;98988.88;;;25.60;42.78
42289;BME280;30230;47.520;19.016;2022-07-23T01:09:46;98983.66;;;25.45;44.59
42289;BME280;30230;47.520;19.016;2022-07-23T01:11:47;98981.22;;;25.43;44.96
42289;BME280;30230;47.520;19.016;2022-07-23T01:13:48;98994.50;;;25.41;45.41
42289;BME280;30230;47.520;19.016;2022-07-23T01:15:49;98984.38;;;25.37;45.38
42289;BME280;30230;47.520;19.016;2022-07-23T01:17:50;98991.84;;;25.36;45.68
42289;BME280;30230;47.520;19.016;2022-07-23T01:19:50;98981.31;;;25.25;46.24
42289;BME280;30230;47.520;19.016;2022-07-23T01:21:51;98985.09;;;25.15;46.37
42289;BME280;30230;47.520;19.016;2022-07-23T01:23:53;98980.03;;;25.03;46.21
42289;BME280;30230;47.520;19.016;2022-07-23T01:25:54;98976.56;;;24.98;46.23
42289;BME280;30230;47.520;19.016;2022-07-23T01:27:55;98984.13;;;24.92;46.66
42289;BME280;30230;47.520;19.016;2022-07-23T01:29:57;98967.53;;;24.78;46.86
42289;BME280;30230;47.520;19.016;2022-07-23T01:31:57;98970.59;;;24.77;46.81
42289;BME280;30230;47.520;19.016;2022-07-23T01:33:58;98975.41;;;24.71;47.09
42289;BME280;30230;47.520;19.016;2022-07-23T01:35:58;98970.25;;;24.64;46.95
42289;BME280;30230;47.520;19.016;2022-07-23T01:37:59;98972.59;;;24.57;47.50
42289;BME280;30230;47.520;19.016;2022-07-23T01:39:59;98963.66;;;24.47;47.29
42289;BME280;30230;47.520;19.016;2022-07-23T01:41:59;98980.38;;;24.55;47.62
42289;BME280;30230;47.520;19.016;2022-07-23T01:44:00;98962.03;;;24.46;47.87
42289;BME280;30230;47.520;19.016;2022-07-23T01:46:01;98981.78;;;24.53;48.32
42289;BME280;30230;47.520;19.016;2022-07-23T01:48:02;98984.31;;;24.49;47.66
42289;BME280;30230;47.520;19.016;2022-07-23T01:50:02;98973.09;;;24.46;47.87
42289;BME280;30230;47.520;19.016;2022-07-23T01:52:03;98985.03;;;24.41;47.94
42289;BME280;30230;47.520;19.016;2022-07-23T01:54:06;98984.00;;;24.37;47.98
42289;BME280;30230;47.520;19.016;2022-07-23T01:56:07;98982.53;;;24.39;48.16
42289;BME280;30230;47.520;19.016;2022-07-23T01:58:07;98971.13;;;24.46;47.78
42289;BME280;30230;47.520;19.016;2022-07-23T02:00:08;98974.72;;;24.47;48.38
42289;BME280;30230;47.520;19.016;2022-07-23T02:02:09;98978.81;;;24.49;48.22
42289;BME280;30230;47.520;19.016;2022-07-23T02:04:09;98980.16;;;24.52;47.70
42289;BME280;30230;47.520;19.016;2022-07-23T02:06:10;98969.50;;;24.45;48.23
42289;BME280;30230;47.520;19.016;2022-07-23T02:08:10;98959.47;;;24.49;48.36
42289;BME280;30230;47.520;19.016;2022-07-23T02:10:11;98975.66;;;24.56;47.80
42289;BME280;30230;47.520;19.016;2022-07-23T02:12:11;98973.81;;;24.51;47.54
42289;BME280;30230;47.520;19.016;2022-07-23T02:14:12;98977.09;;;24.53;48.03
42289;BME280;30230;47.520;19.016;2022-07-23T02:16:12;98975.31;;;24.43;47.63
42289;BME280;30230;47.520;19.016;2022-07-23T02:18:13;98975.31;;;24.43;47.87
42289;BME280;30230;47.520;19.016;2022-07-23T02:20:13;98984.22;;;24.40;47.65
42289;BME280;30230;47.520;19.016;2022-07-23T02:22:14;98982.03;;;24.37;47.86
42289;BME280;30230;47.520;19.016;2022-07-23T02:24:15;98974.22;;;24.26;47.87
42289;BME280;30230;47.520;19.016;2022-07-23T02:26:16;98976.44;;;24.24;47.73
42289;BME280;30230;47.520;19.016;2022-07-23T02:28:16;98983.16;;;24.17;47.70
42289;BME280;30230;47.520;19.016;2022-07-23T02:30:16;98982.09;;;24.13;48.07
42289;BME280;30230;47.520;19.016;2022-07-23T02:32:17;98979.50;;;24.03;48.95
42289;BME280;30230;47.520;19.016;2022-07-23T02:34:17;98977.88;;;24.02;49.03
42289;BME280;30230;47.520;19.016;2022-07-23T02:36:18;98976.53;;;24.00;49.32
42289;BME280;30230;47.520;19.016;2022-07-23T02:38:18;98981.25;;;23.99;49.35
42289;BME280;30230;47.520;19.016;2022-07-23T02:40:19;98980.19;;;23.95;49.00
42289;BME280;30230;47.520;19.016;2022-07-23T02:42:20;98982.88;;;24.00;48.23
42289;BME280;30230;47.520;19.016;2022-07-23T02:44:21;98980.13;;;24.00;48.25
42289;BME280;30230;47.520;19.016;2022-07-23T02:46:21;98985.72;;;23.95;47.76
42289;BME280;30230;47.520;19.016;2022-07-23T02:48:22;98966.72;;;23.94;47.61
42289;BME280;30230;47.520;19.016;2022-07-23T02:50:22;98980.56;;;24.07;47.85
42289;BME280;30230;47.520;19.016;2022-07-23T02:52:23;98970.06;;;24.09;47.83
42289;BME280;30230;47.520;19.016;2022-07-23T02:54:23;98974.88;;;24.17;47.91
42289;BME280;30230;47.520;19.016;2022-07-23T02:56:24;98974.28;;;24.21;47.91
42289;BME280;30230;47.520;19.016;2022-07-23T02:58:24;98969.59;;;24.21;47.42
42289;BME280;30230;47.520;19.016;2022-07-23T03:00:26;98972.66;;;24.20;47.46
42289;BME280;30230;47.520;19.016;2022-07-23T03:02:27;98964.38;;;24.20;47.07
42289;BME280;30230;47.520;19.016;2022-07-23T03:04:27;98954.22;;;24.15;46.91
42289;BME280;30230;47.520;19.016;2022-07-23T03:06:28;98965.09;;;24.25;47.01
42289;BME280;30230;47.520;19.016;2022-07-23T03:08:28;98956.91;;;24.20;47.31
42289;BME280;30230;47.520;19.016;2022-07-23T03:10:28;98972.84;;;24.23;46.83
42289;BME280;30230;47.520;19.016;2022-07-23T03:12:29;98974.72;;;24.28;47.23
42289;BME280;30230;47.520;19.016;2022-07-23T03:14:30;98960.41;;;24.26;46.48
42289;BME280;30230;47.520;19.016;2022-07-23T03:16:30;98962.03;;;24.27;46.52
42289;BME280;30230;47.520;19.016;2022-07-23T03:18:30;98970.22;;;24.32;46.77
42289;BME280;30230;47.520;19.016;2022-07-23T03:20:31;98977.94;;;24.35;46.94
42289;BME280;30230;47.520;19.016;2022-07-23T03:22:31;98978.69;;;24.40;46.03
42289;BME280;30230;47.520;19.016;2022-07-23T03:24:32;98960.41;;;24.26;46.97
42289;BME280;30230;47.520;19.016;2022-07-23T03:26:51;98985.63;;;24.38;46.79
42289;BME280;30230;47.520;19.016;2022-07-23T03:28:51;98971.88;;;24.33;46.18
42289;BME280;30230;47.520;19.016;2022-07-23T03:30:52;98974.31;;;24.34;47.16
42289;BME280;30230;47.520;19.016;2022-07-23T03:32:53;98970.75;;;24.34;46.91
42289;BME280;30230;47.520;19.016;2022-07-23T03:34:53;98956.53;;;24.27;47.45
42289;BME280;30230;47.520;19.016;2022-07-23T03:36:53;98978.78;;;24.35;46.66
42289;BME280;30230;47.520;19.016;2022-07-23T03:38:54;98967.97;;;24.34;46.85
42289;BME280;30230;47.520;19.016;2022-07-23T03:40:54;98975.13;;;24.40;46.71
42289;BME280;30230;47.520;19.016;2022-07-23T03:42:55;98979.59;;;24.36;46.56
42289;BME280;30230;47.520;19.016;2022-07-23T03:44:55;98979.34;;;24.51;46.29
42289;BME280;30230;47.520;19.016;2022-07-23T03:46:56;98977.16;;;24.48;46.96
42289;BME280;30230;47.520;19.016;2022-07-23T03:48:56;98981.56;;;24.49;46.89
42289;BME280;30230;47.520;19.016;2022-07-23T03:50:57;98965.97;;;24.39;47.52
42289;BME280;30230;47.520;19.016;2022-07-23T03:52:57;98983.41;;;24.40;47.89
42289;BME280;30230;47.520;19.016;2022-07-23T03:54:58;98987.06;;;24.35;48.38
42289;BME280;30230;47.520;19.016;2022-07-23T03:56:58;98981.78;;;24.34;48.40
42289;BME280;30230;47.520;19.016;2022-07-23T03:58:58;98969.81;;;24.25;48.56
42289;BME280;30230;47.520;19.016;2022-07-23T04:00:59;98979.91;;;24.29;48.54
42289;BME280;30230;47.520;19.016;2022-07-23T04:03:00;98982.34;;;24.36;48.78
42289;BME280;30230;47.520;19.016;2022-07-23T04:05:00;98981.22;;;24.37;48.78
42289;BME280;30230;47.520;19.016;2022-07-23T04:07:01;98980.09;;;24.38;48.67
42289;BME280;30230;47.520;19.016;2022-07-23T04:09:02;98971.31;;;24.36;48.87
42289;BME280;30230;47.520;19.016;2022-07-23T04:11:02;98988.28;;;24.43;48.91
42289;BME280;30230;47.520;19.016;2022-07-23T04:13:03;98968.47;;;24.41;48.47
42289;BME280;30230;47.520;19.016;2022-07-23T04:15:04;98978.28;;;24.47;48.44
42289;BME280;30230;47.520;19.016;2022-07-23T04:17:04;98985.38;;;24.53;47.72
42289;BME280;30230;47.520;19.016;2022-07-23T04:19:05;98969.84;;;24.57;47.99
42289;BME280;30230;47.520;19.016;2022-07-23T04:21:05;98976.41;;;24.61;48.10
42289;BME280;30230;47.520;19.016;2022-07-23T04:23:06;98984.06;;;24.64;48.07
42289;BME280;30230;47.520;19.016;2022-07-23T04:25:06;98978.03;;;24.62;48.26
42289;BME280;30230;47.520;19.016;2022-07-23T04:27:07;98992.25;;;24.69;48.25
42289;BME280;30230;47.520;19.016;2022-07-23T04:29:07;98982.84;;;24.71;48.96
42289;BME280;30230;47.520;19.016;2022-07-23T04:31:08;98977.94;;;24.67;49.25
42289;BME280;30230;47.520;19.016;2022-07-23T04:33:08;98986.63;;;24.75;49.19
42289;BME280;30230;47.520;19.016;2022-07-23T04:35:09;98976.31;;;24.66;49.34
42289;BME280;30230;47.520;19.016;2022-07-23T04:37:09;98991.66;;;24.73;49.64
42289;BME280;30230;47.520;19.016;2022-07-23T04:39:09;98981.84;;;24.66;49.86
42289;BME280;30230;47.520;19.016;2022-07-23T04:41:10;98988.09;;;24.72;49.42
42289;BME280;30230;47.520;19.016;2022-07-23T04:43:10;98993.28;;;24.74;49.92
42289;BME280;30230;47.520;19.016;2022-07-23T04:45:11;98999.31;;;24.76;49.50
42289;BME280;30230;47.520;19.016;2022-07-23T04:47:11;98996.69;;;24.84;49.76
42289;BME280;30230;47.520;19.016;2022-07-23T04:49:12;99003.84;;;24.85;49.42
42289;BME280;30230;47.520;19.016;2022-07-23T04:51:12;98995.56;;;24.85;49.66
42289;BME280;30230;47.520;19.016;2022-07-23T04:53:13;99000.72;;;24.92;49.92
42289;BME280;30230;47.520;19.016;2022-07-23T04:55:14;98989.44;;;24.88;49.17
42289;BME280;30230;47.520;19.016;2022-07-23T04:57:15;98995.69;;;24.94;49.00
42289;BME280;30230;47.520;19.016;2022-07-23T04:59:16;99004.09;;;25.03;48.47
42289;BME280;30230;47.520;19.016;2022-07-23T05:01:16;98990.56;;;25.01;48.69
42289;BME280;30230;47.520;19.016;2022-07-23T05:03:17;98994.19;;;25.15;48.56
42289;BME280;30230;47.520;19.016;2022-07-23T05:05:17;99002.28;;;25.26;48.28
42289;BME280;30230;47.520;19.016;2022-07-23T05:07:18;98996.56;;;25.36;48.05
42289;BME280;30230;47.520;19.016;2022-07-23T05:09:18;98994.81;;;25.40;48.01
42289;BME280;30230;47.520;19.016;2022-07-23T05:11:19;98990.81;;;25.46;47.96
42289;BME280;30230;47.520;19.016;2022-07-23T05:13:19;98993.81;;;25.50;48.08
42289;BME280;30230;47.520;19.016;2022-07-23T05:15:20;98991.44;;;25.57;47.57
42289;BME280;30230;47.520;19.016;2022-07-23T05:17:20;98990.00;;;25.59;47.19
42289;BME280;30230;47.520;19.016;2022-07-23T05:19:21;98978.94;;;25.59;46.89
42289;BME280;30230;47.520;19.016;2022-07-23T05:21:22;98996.06;;;25.75;44.88
42289;BME280;30230;47.520;19.016;2022-07-23T05:23:22;98996.75;;;25.81;45.22
42289;BME280;30230;47.520;19.016;2022-07-23T05:25:22;98985.38;;;25.82;45.50
42289;BME280;30230;47.520;19.016;2022-07-23T05:27:23;98993.75;;;25.91;44.05
42289;BME280;30230;47.520;19.016;2022-07-23T05:29:24;98997.22;;;25.96;43.81
42289;BME280;30230;47.520;19.016;2022-07-23T05:31:24;98986.16;;;25.96;42.87
42289;BME280;30230;47.520;19.016;2022-07-23T05:33:25;99005.78;;;26.09;43.01
42289;BME280;30230;47.520;19.016;2022-07-23T05:35:25;99003.22;;;26.12;42.86
42289;BME280;30230;47.520;19.016;2022-07-23T05:37:26;98995.63;;;26.18;43.60
42289;BME280;30230;47.520;19.016;2022-07-23T05:39:26;98993.53;;;26.23;43.54
42289;BME280;30230;47.520;19.016;2022-07-23T05:41:26;99002.06;;;26.27;43.59
42289;BME280;30230;47.520;19.016;2022-07-23T05:43:27;98999.44;;;26.31;43.57
42289;BME280;30230;47.520;19.016;2022-07-23T05:45:28;98992.81;;;26.32;43.43
42289;BME280;30230;47.520;19.016;2022-07-23T05:47:29;98988.09;;;26.32;42.70
42289;BME280;30230;47.520;19.016;2022-07-23T05:49:38;98982.31;;;26.42;42.35
42289;BME280;30230;47.520;19.016;2022-07-23T05:51:39;98986.09;;;26.46;41.95
42289;BME280;30230;47.520;19.016;2022-07-23T05:53:39;98998.69;;;26.53;41.52
42289;BME280;30230;47.520;19.016;2022-07-23T05:55:40;98991.06;;;26.58;41.33
42289;BME280;30230;47.520;19.016;2022-07-23T05:57:41;98993.56;;;26.68;41.07
42289;BME280;30230;47.520;19.016;2022-07-23T05:59:41;99000.41;;;26.71;40.28
42289;BME280;30230;47.520;19.016;2022-07-23T06:01:42;98998.84;;;26.79;39.76
42289;BME280;30230;47.520;19.016;2022-07-23T06:03:42;98997.56;;;26.85;39.80
42289;BME280;30230;47.520;19.016;2022-07-23T06:05:43;98986.97;;;26.87;39.89
42289;BME280;30230;47.520;19.016;2022-07-23T06:07:43;98993.06;;;26.97;39.80
42289;BME280;30230;47.520;19.016;2022-07-23T06:09:44;98996.50;;;27.03;39.88
42289;BME280;30230;47.520;19.016;2022-07-23T06:11:44;98964.84;;;26.95;40.05
42289;BME280;30230;47.520;19.016;2022-07-23T06:13:45;98980.63;;;27.17;40.19
42289;BME280;30230;47.520;19.016;2022-07-23T06:15:45;98977.56;;;27.19;40.11
42289;BME280;30230;47.520;19.016;2022-07-23T06:17:46;98979.53;;;27.27;39.80
42289;BME280;30230;47.520;19.016;2022-07-23T06:19:46;98985.59;;;27.38;39.39
42289;BME280;30230;47.520;19.016;2022-07-23T06:21:46;98976.31;;;27.42;39.46
42289;BME280;30230;47.520;19.016;2022-07-23T06:23:47;98981.22;;;27.54;39.14
42289;BME280;30230;47.520;19.016;2022-07-23T06:25:47;98980.94;;;27.64;38.19
42289;BME280;30230;47.520;19.016;2022-07-23T06:27:48;98982.44;;;27.70;38.41
42289;BME280;30230;47.520;19.016;2022-07-23T06:29:49;98981.66;;;27.78;38.49
42289;BME280;30230;47.520;19.016;2022-07-23T06:31:50;98984.59;;;27.91;38.17
42289;BME280;30230;47.520;19.016;2022-07-23T06:33:50;98978.41;;;27.94;38.78
42289;BME280;30230;47.520;19.016;2022-07-23T06:35:51;98983.63;;;28.04;38.37
42289;BME280;30230;47.520;19.016;2022-07-23T06:37:51;98979.72;;;28.14;38.05
42289;BME280;30230;47.520;19.016;2022-07-23T06:39:51;98971.88;;;28.24;37.96
42289;BME280;30230;47.520;19.016;2022-07-23T06:41:52;98976.97;;;28.40;38.05
42289;BME280;30230;47.520;19.016;2022-07-23T06:43:52;98973.50;;;28.51;38.01
42289;BME280;30230;47.520;19.016;2022-07-23T06:45:53;98972.97;;;28.58;37.46
42289;BME280;30230;47.520;19.016;2022-07-23T06:47:53;98975.75;;;28.67;37.64
42289;BME280;30230;47.520;19.016;2022-07-23T06:49:54;98984.38;;;28.83;37.47
42289;BME280;30230;47.520;19.016;2022-07-23T06:51:54;98977.66;;;28.92;36.30
42289;BME280;30230;47.520;19.016;2022-07-23T06:53:54;98965.91;;;28.95;35.78
42289;BME280;30230;47.520;19.016;2022-07-23T06:55:55;98971.72;;;29.11;36.27
42289;BME280;30230;47.520;19.016;2022-07-23T06:57:55;98977.41;;;29.23;35.95
42289;BME280;30230;47.520;19.016;2022-07-23T06:59:56;98964.91;;;29.29;35.77
42289;BME280;30230;47.520;19.016;2022-07-23T07:01:56;98971.06;;;29.44;35.37
42289;BME280;30230;47.520;19.016;2022-07-23T07:03:58;98978.69;;;29.64;35.23
42289;BME280;30230;47.520;19.016;2022-07-23T07:05:58;98970.75;;;29.75;34.95
42289;BME280;30230;47.520;19.016;2022-07-23T07:07:59;98978.69;;;29.85;35.26
42289;BME280;30230;47.520;19.016;2022-07-23T07:09:59;98963.38;;;30.00;35.08
42289;BME280;30230;47.520;19.016;2022-07-23T07:12:00;98961.47;;;30.13;34.11
42289;BME280;30230;47.520;19.016;2022-07-23T07:14:00;98965.75;;;30.31;34.33
42289;BME280;30230;47.520;19.016;2022-07-23T07:16:01;98949.75;;;30.40;34.02
42289;BME280;30230;47.520;19.016;2022-07-23T07:18:01;98963.66;;;30.61;32.75
42289;BME280;30230;47.520;19.016;2022-07-23T07:20:03;98963.03;;;30.76;32.28
42289;BME280;30230;47.520;19.016;2022-07-23T07:22:04;98962.81;;;30.94;31.42
42289;BME280;30230;47.520;19.016;2022-07-23T07:24:05;98950.03;;;31.05;31.99
42289;BME280;30230;47.520;19.016;2022-07-23T07:26:06;98955.41;;;31.22;31.83
42289;BME280;30230;47.520;19.016;2022-07-23T07:28:07;98959.16;;;31.38;31.97
42289;BME280;30230;47.520;19.016;2022-07-23T07:30:08;98965.09;;;31.49;31.04
42289;BME280;30230;47.520;19.016;2022-07-23T07:32:08;98960.19;;;31.58;31.57
42289;BME280;30230;47.520;19.016;2022-07-23T07:34:09;98956.22;;;31.72;31.58
42289;BME280;30230;47.520;19.016;2022-07-23T07:36:10;98962.28;;;31.86;31.37
42289;BME280;30230;47.520;19.016;2022-07-23T07:38:10;98955.84;;;31.98;30.77
42289;BME280;30230;47.520;19.016;2022-07-23T07:40:11;98961.84;;;32.12;30.73
42289;BME280;30230;47.520;19.016;2022-07-23T07:42:11;98956.69;;;32.26;30.28
42289;BME280;30230;47.520;19.016;2022-07-23T07:44:12;98952.91;;;32.34;30.40
42289;BME280;30230;47.520;19.016;2022-07-23T07:46:12;98958.66;;;32.54;29.87
42289;BME280;30230;47.520;19.016;2022-07-23T07:48:12;98959.78;;;32.65;29.54
42289;BME280;30230;47.520;19.016;2022-07-23T07:50:13;98965.66;;;32.76;29.86
42289;BME280;30230;47.520;19.016;2022-07-23T07:52:13;98953.94;;;32.86;29.65
42289;BME280;30230;47.520;19.016;2022-07-23T07:54:14;98954.59;;;33.11;28.83
42289;BME280;30230;47.520;19.016;2022-07-23T07:56:14;98946.91;;;33.24;29.73
42289;BME280;30230;47.520;19.016;2022-07-23T07:58:15;98946.03;;;33.35;28.88
42289;BME280;30230;47.520;19.016;2022-07-23T08:00:16;98949.00;;;33.42;28.51
42289;BME280;30230;47.520;19.016;2022-07-23T08:02:16;98957.00;;;33.60;28.99
42289;BME280;30230;47.520;19.016;2022-07-23T08:04:17;98950.25;;;33.61;29.38
42289;BME280;30230;47.520;19.016;2022-07-23T08:06:17;98951.44;;;33.79;28.90
42289;BME280;30230;47.520;19.016;2022-07-23T08:08:18;98953.06;;;33.80;28.99
42289;BME280;30230;47.520;19.016;2022-07-23T08:10:19;98945.31;;;33.74;28.10
42289;BME280;30230;47.520;19.016;2022-07-23T08:12:20;98957.66;;;33.88;28.61
42289;BME280;30230;47.520;19.016;2022-07-23T08:14:20;98939.88;;;33.97;28.04
42289;BME280;30230;47.520;19.016;2022-07-23T08:16:20;98957.03;;;34.14;27.80
42289;BME280;30230;47.520;19.016;2022-07-23T08:18:21;98948.56;;;34.30;27.10
42289;BME280;30230;47.520;19.016;2022-07-23T08:20:23;98946.34;;;34.39;26.20
42289;BME280;30230;47.520;19.016;2022-07-23T08:22:24;98956.31;;;34.56;27.70
42289;BME280;30230;47.520;19.016;2022-07-23T08:24:25;98954.66;;;34.75;26.35
42289;BME280;30230;47.520;19.016;2022-07-23T08:26:25;98948.16;;;34.93;26.29
42289;BME280;30230;47.520;19.016;2022-07-23T08:28:26;98950.03;;;35.05;25.66
42289;BME280;30230;47.520;19.016;2022-07-23T08:30:27;98939.72;;;35.13;25.36
42289;BME280;30230;47.520;19.016;2022-07-23T08:32:28;98944.63;;;35.19;25.69
42289;BME280;30230;47.520;19.016;2022-07-23T08:34:28;98952.91;;;35.35;25.86
42289;BME280;30230;47.520;19.016;2022-07-23T08:36:29;98943.31;;;35.36;25.75
42289;BME280;30230;47.520;19.016;2022-07-23T08:38:32;98948.16;;;35.62;25.67
42289;BME280;30230;47.520;19.016;2022-07-23T08:40:37;98945.50;;;35.73;25.62
42289;BME280;30230;47.520;19.016;2022-07-23T08:42:37;98948.94;;;35.89;24.34
42289;BME280;30230;47.520;19.016;2022-07-23T08:44:41;98945.53;;;36.03;24.58
42289;BME280;30230;47.520;19.016;2022-07-23T08:46:44;98952.59;;;36.23;24.66
42289;BME280;30230;47.520;19.016;2022-07-23T08:48:48;98949.94;;;36.34;23.38
42289;BME280;30230;47.520;19.016;2022-07-23T08:50:54;98942.34;;;36.38;24.07
42289;BME280;30230;47.520;19.016;2022-07-23T08:52:55;98944.13;;;36.50;23.32
42289;BME280;30230;47.520;19.016;2022-07-23T08:54:58;98944.16;;;36.54;23.21
42289;BME280;30230;47.520;19.016;2022-07-23T08:56:59;98941.69;;;36.48;23.32
42289;BME280;30230;47.520;19.016;2022-07-23T08:58:59;98934.53;;;36.55;23.47
42289;BME280;30230;47.520;19.016;2022-07-23T09:01:00;98945.56;;;36.74;24.01
42289;BME280;30230;47.520;19.016;2022-07-23T09:03:01;98945.34;;;36.90;24.46
42289;BME280;30230;47.520;19.016;2022-07-23T09:05:01;98939.34;;;36.95;22.71
42289;BME280;30230;47.520;19.016;2022-07-23T09:07:02;98937.78;;;36.97;23.18
42289;BME280;30230;47.520;19.016;2022-07-23T09:09:17;98937.56;;;37.17;23.12
42289;BME280;30230;47.520;19.016;2022-07-23T09:11:18;98928.38;;;37.27;23.95
42289;BME280;30230;47.520;19.016;2022-07-23T09:13:32;98933.78;;;37.50;25.19
42289;BME280;30230;47.520;19.016;2022-07-23T09:15:38;98924.84;;;37.37;21.99
42289;BME280;30230;47.520;19.016;2022-07-23T09:17:48;98928.56;;;37.52;22.10
42289;BME280;30230;47.520;19.016;2022-07-23T09:19:49;98938.72;;;37.64;22.07
42289;BME280;30230;47.520;19.016;2022-07-23T09:21:49;98920.69;;;37.79;22.15
42289;BME280;30230;47.520;19.016;2022-07-23T09:23:58;98925.88;;;37.73;21.23
42289;BME280;30230;47.520;19.016;2022-07-23T09:26:02;98921.09;;;37.81;22.21
42289;BME280;30230;47.520;19.016;2022-07-23T09:28:03;98920.81;;;38.04;21.11
42289;BME280;30230;47.520;19.016;2022-07-23T09:30:05;98920.00;;;38.03;20.94
42289;BME280;30230;47.520;19.016;2022-07-23T09:32:05;98930.91;;;38.09;20.84
42289;BME280;30230;47.520;19.016;2022-07-23T09:34:29;98922.13;;;38.21;20.52
42289;BME280;30230;47.520;19.016;2022-07-23T09:36:30;98930.91;;;38.01;20.25
42289;BME280;30230;47.520;19.016;2022-07-23T09:38:30;98926.06;;;38.02;20.37
42289;BME280;30230;47.520;19.016;2022-07-23T09:40:31;98924.13;;;38.20;20.82
42289;BME280;30230;47.520;19.016;2022-07-23T09:42:31;98916.84;;;38.16;20.36
42289;BME280;30230;47.520;19.016;2022-07-23T09:44:40;98920.59;;;38.45;20.87
42289;BME280;30230;47.520;19.016;2022-07-23T09:46:42;98908.53;;;38.59;20.66
42289;BME280;30230;47.520;19.016;2022-07-23T09:48:43;98917.81;;;38.63;20.12
42289;BME280;30230;47.520;19.016;2022-07-23T09:50:44;98923.06;;;38.68;20.48
42289;BME280;30230;47.520;19.016;2022-07-23T09:52:46;98919.88;;;38.76;20.30
42289;BME280;30230;47.520;19.016;2022-07-23T09:55:00;98913.84;;;38.78;20.45
42289;BME280;30230;47.520;19.016;2022-07-23T09:57:12;98920.69;;;38.77;19.63
42289;BME280;30230;47.520;19.016;2022-07-23T09:59:17;98918.28;;;38.83;19.30
42289;BME280;30230;47.520;19.016;2022-07-23T10:01:18;98915.44;;;38.86;19.66
42289;BME280;30230;47.520;19.016;2022-07-23T10:03:23;98912.22;;;38.77;18.84
42289;BME280;30230;47.520;19.016;2022-07-23T10:05:24;98915.81;;;38.70;18.84
42289;BME280;30230;47.520;19.016;2022-07-23T10:07:26;98917.38;;;38.46;19.32
42289;BME280;30230;47.520;19.016;2022-07-23T10:09:29;98910.09;;;38.45;19.42
42289;BME280;30230;47.520;19.016;2022-07-23T10:11:31;98907.34;;;38.63;19.40
42289;BME280;30230;47.520;19.016;2022-07-23T10:13:33;98908.97;;;38.68;20.57
42289;BME280;30230;47.520;19.016;2022-07-23T10:15:34;98907.34;;;38.63;19.66
42289;BME280;30230;47.520;19.016;2022-07-23T10:17:35;98905.72;;;38.62;18.92
42289;BME280;30230;47.520;19.016;2022-07-23T10:19:36;98899.66;;;38.64;19.60
42289;BME280;30230;47.520;19.016;2022-07-23T10:21:44;98911.41;;;38.76;19.57
42289;BME280;30230;47.520;19.016;2022-07-23T10:23:56;98905.75;;;38.73;19.83
42289;BME280;30230;47.520;19.016;2022-07-23T10:26:51;98907.75;;;38.62;19.53
42289;BME280;30230;47.520;19.016;2022-07-23T10:31:31;98903.56;;;38.16;20.41
42289;BME280;30230;47.520;19.016;2022-07-23T10:38:23;98894.88;;;39.03;19.15
42289;BME280;30230;47.520;19.016;2022-07-23T10:40:24;98893.69;;;39.04;19.06
42289;BME280;30230;47.520;19.016;2022-07-23T10:42:33;98894.88;;;39.39;19.01